Airfield :
LOGIN :

Register | Disclaimer

   EN    FR    IT 

 










Legend :    VFR   Marginal VFR   IFR   Intensive IFR   Very Intensive IFR
Visi :
Ceiling :
>= 8 km
>= 3000ft
5 to 8 km
1000 to 3000 ft
1500m to 5 km
500 to 1000 ft
800 to 1500m
200 to 500 ft
< 800m
< 200 ft
Symbols :   Thunderstorms  Fog  Heavy snow  Heavy precipitations  Wind > 20 kt
SIGMETs :     Misc.  Thunderstorms  Icing  Turbulence  Mountain Waves  Volcanic Ashes







- Airport Elevation : 36 ft
- IATA code : LTQ
- Download approach charts


LFAT - Le Touquet

CURRENT METAR :
  • 231400Z AUTO 21013KT 170V240 9999 -DZ OVC011 11/10 Q1018 TEMPO 2000 DZRA OVC003 BECMG 21015G25KT

EXPIRED METARs :
  • 231330Z AUTO 20013KT 170V230 9999 OVC015 11/09 Q1018 TEMPO 2000 DZRA OVC003 BECMG 21015G25KT
  • 231300Z AUTO 20011KT 170V230 9999 OVC014 11/09 Q1019 TEMPO 2000 DZRA OVC003 BECMG 21015G25KT
  • 231230Z AUTO 20011KT 170V230 9999 OVC012 10/09 Q1019 TEMPO 2000 DZRA OVC003 BECMG 21015G25KT
  • 231200Z AUTO 21008KT 170V230 9999 4800 OVC010 10/09 Q1019 TEMPO 2000 DZRA OVC003 BECMG 21015G25KT
  • 231130Z AUTO 20010KT 170V250 9999 OVC009 09/08 Q1020 TEMPO 2000 DZRA OVC003 BECMG 21015G25KT
  • 231100Z AUTO 19008KT 150V220 9999 OVC007 09/08 Q1020 TEMPO 21015G25KT 2000 DZRA OVC003

TAF TAF LFAT
Valid from the 23 at 12:00 until the 23 at 21:00 UTC


231100Z 2312/2321 21015G25KT 9999 OVC008
TEMPO 2312/2321 2000 DZRA OVC003
ATIS : +33 3 21 06 62 84
No reported NOTAMs for that airfield.



MET'MAP, your aeronautical weather chart ! - Copyright ORBIFLY December 2007 - Disclaimer

ORBIFLY MET'MAP TEAM :

Programming & Development : Alexandra Zaïnal
Concept & Development : Baudouin d'Aumeries
Co-Development & Prog : Marc-Olivier Méhu
Technical & hardware support : Manuel Goepfert

Contact : metmap@orbifly.com




SOURCES & CREDITS :

   NOAA